createdAt,value
2022-09-21T00:01:12.762Z,12.39
2022-09-21T00:03:44.008Z,12.38
2022-09-21T00:06:19.281Z,12.36
2022-09-21T00:08:49.954Z,12.32
2022-09-21T00:11:25.233Z,12.35
2022-09-21T00:14:01.713Z,12.35
2022-09-21T00:16:35.217Z,12.37
2022-09-21T00:19:07.088Z,12.38
2022-09-21T00:21:38.611Z,12.38
2022-09-21T00:24:13.039Z,12.36
2022-09-21T00:26:43.345Z,12.33
2022-09-21T00:29:14.466Z,12.31
2022-09-21T00:31:44.794Z,12.28
2022-09-21T00:34:15.029Z,12.28
2022-09-21T00:36:45.563Z,12.30
2022-09-21T00:39:15.802Z,12.31
2022-09-21T00:41:46.086Z,12.32
2022-09-21T00:44:28.624Z,12.31
2022-09-21T00:47:03.864Z,12.29
2022-09-21T00:49:36.180Z,12.29
2022-09-21T00:52:08.819Z,12.27
2022-09-21T00:54:57.899Z,12.25
2022-09-21T00:57:32.607Z,12.24
2022-09-21T01:00:08.744Z,12.25
2022-09-21T01:02:40.429Z,12.26
2022-09-21T01:05:12.250Z,12.26
2022-09-21T01:07:47.930Z,12.25
2022-09-21T01:10:20.275Z,12.25
2022-09-21T01:13:02.518Z,12.27
2022-09-21T01:15:32.652Z,12.27
2022-09-21T01:18:28.813Z,12.32
2022-09-21T01:21:08.203Z,12.34
2022-09-21T01:23:48.153Z,12.31
2022-09-21T01:26:23.943Z,12.28
2022-09-21T01:29:13.373Z,12.23
2022-09-21T01:32:00.666Z,12.19
2022-09-21T01:34:39.566Z,12.15
2022-09-21T01:37:15.780Z,12.16
2022-09-21T01:39:49.680Z,12.16
2022-09-21T01:42:23.306Z,12.14
2022-09-21T01:44:53.943Z,12.15
2022-09-21T01:47:25.736Z,12.16
2022-09-21T01:49:59.209Z,12.15
2022-09-21T01:52:47.673Z,12.14
2022-09-21T01:55:28.603Z,12.13
2022-09-21T01:58:03.284Z,12.13
2022-09-21T02:00:36.655Z,12.10
2022-09-21T02:03:41.183Z,12.11
2022-09-21T02:06:13.187Z,12.14
2022-09-21T02:08:43.533Z,12.17
2022-09-21T02:11:14.427Z,12.17
2022-09-21T02:13:50.099Z,12.16
2022-09-21T02:16:37.001Z,12.13
2022-09-21T02:19:13.263Z,12.16
2022-09-21T02:22:06.279Z,12.16
2022-09-21T02:24:47.708Z,12.16
2022-09-21T02:27:48.501Z,12.15
2022-09-21T02:30:25.184Z,12.16
2022-09-21T02:33:28.419Z,12.18
2022-09-21T02:36:09.317Z,12.19
2022-09-21T02:38:39.503Z,12.23
2022-09-21T02:41:09.605Z,12.26
2022-09-21T02:43:55.066Z,12.26
2022-09-21T02:46:34.738Z,12.27
2022-09-21T02:49:09.785Z,12.30
2022-09-21T02:51:47.885Z,12.32
2022-09-21T02:54:22.260Z,12.28
2022-09-21T02:56:54.449Z,12.26
2022-09-21T02:59:25.302Z,12.23
2022-09-21T03:01:56.693Z,12.24
2022-09-21T03:04:28.203Z,12.21
2022-09-21T03:06:58.484Z,12.18
2022-09-21T03:09:29.601Z,12.13
2022-09-21T03:12:00.015Z,12.09
2022-09-21T03:14:30.274Z,12.07
2022-09-21T03:17:01.350Z,12.04
2022-09-21T03:19:31.405Z,12.02
2022-09-21T03:22:01.445Z,11.97
2022-09-21T03:24:49.031Z,11.90
2022-09-21T03:27:22.971Z,11.84
2022-09-21T03:29:53.177Z,11.79
2022-09-21T03:32:23.496Z,11.79
2022-09-21T03:34:53.873Z,11.79
2022-09-21T03:37:25.311Z,11.78
2022-09-21T03:39:55.494Z,11.76
2022-09-21T03:42:25.749Z,11.76
2022-09-21T03:44:56.363Z,11.77
2022-09-21T03:47:26.921Z,11.79
2022-09-21T03:49:57.220Z,11.84
2022-09-21T03:52:27.613Z,11.88
2022-09-21T03:54:58.121Z,11.92
2022-09-21T03:57:28.478Z,11.94
2022-09-21T03:59:58.877Z,11.95
2022-09-21T04:02:29.191Z,11.94
2022-09-21T04:04:59.722Z,11.92
2022-09-21T04:07:34.858Z,11.90
2022-09-21T04:10:07.644Z,11.91
2022-09-21T04:12:38.186Z,11.87
2022-09-21T04:15:12.203Z,11.83
2022-09-21T04:17:42.923Z,11.81
2022-09-21T04:20:13.869Z,11.79
2022-09-21T04:22:45.170Z,11.78
2022-09-21T04:25:16.810Z,11.77
2022-09-21T04:27:47.101Z,11.74
2022-09-21T04:30:18.563Z,11.72
2022-09-21T04:32:48.891Z,11.71
2022-09-21T04:35:19.645Z,11.70
2022-09-21T04:37:57.621Z,11.71
2022-09-21T04:40:28.548Z,11.70
2022-09-21T04:42:59.088Z,11.68
2022-09-21T04:45:29.424Z,11.66
2022-09-21T04:47:59.678Z,11.65
2022-09-21T04:50:29.965Z,11.65
2022-09-21T04:53:07.280Z,11.64
2022-09-21T04:55:37.699Z,11.60
2022-09-21T04:58:08.103Z,11.54
2022-09-21T05:00:38.481Z,11.49
2022-09-21T05:03:12.038Z,11.48
2022-09-21T05:05:54.225Z,11.46
2022-09-21T05:08:40.513Z,11.46
2022-09-21T05:11:13.393Z,11.41
2022-09-21T05:13:45.159Z,11.37
2022-09-21T05:16:17.262Z,11.34
2022-09-21T05:18:48.410Z,11.31
2022-09-21T05:21:18.809Z,11.29
2022-09-21T05:23:52.740Z,11.28
2022-09-21T05:31:17.990Z,11.26
2022-09-21T05:34:05.491Z,11.24
2022-09-21T05:36:53.595Z,11.22
2022-09-21T05:39:24.189Z,11.24
2022-09-21T05:41:57.170Z,11.26
2022-09-21T05:44:29.974Z,11.30
2022-09-21T05:47:09.994Z,11.34
2022-09-21T05:50:00.031Z,11.39
2022-09-21T05:52:45.323Z,11.43
2022-09-21T05:55:33.861Z,11.47
2022-09-21T05:58:30.273Z,11.51
2022-09-21T06:01:30.564Z,11.60
2022-09-21T06:04:05.349Z,11.66
2022-09-21T06:06:37.132Z,11.69
2022-09-21T06:09:07.399Z,11.72
2022-09-21T06:11:38.094Z,11.75
2022-09-21T06:14:08.365Z,11.78
2022-09-21T06:16:42.901Z,11.80
2022-09-21T06:19:14.709Z,11.82
2022-09-21T06:26:15.290Z,11.95
2022-09-21T06:28:45.554Z,11.98
2022-09-21T06:31:15.796Z,12.00
2022-09-21T06:33:48.226Z,12.00
2022-09-21T06:36:19.064Z,11.99
2022-09-21T06:38:49.086Z,11.98
2022-09-21T06:41:21.444Z,11.96
2022-09-21T06:44:58.448Z,11.96
2022-09-21T06:47:28.815Z,11.97
2022-09-21T06:49:58.931Z,11.98
2022-09-21T06:52:29.216Z,11.92
2022-09-21T06:54:59.734Z,11.91
2022-09-21T06:57:30.098Z,11.91
2022-09-21T07:00:00.303Z,11.90
2022-09-21T07:02:30.730Z,11.91
2022-09-21T07:05:00.883Z,11.96
2022-09-21T07:07:31.991Z,12.02
2022-09-21T07:10:12.158Z,12.04
2022-09-21T07:12:45.361Z,12.04
2022-09-21T07:21:24.626Z,12.01
2022-09-21T07:29:02.301Z,12.07
2022-09-21T07:31:32.982Z,12.09
2022-09-21T07:34:03.323Z,12.12
2022-09-21T07:36:33.383Z,12.13
2022-09-21T07:39:06.119Z,12.17
2022-09-21T07:41:36.214Z,12.23
2022-09-21T07:44:07.214Z,12.32
2022-09-21T07:46:41.307Z,12.35
2022-09-21T07:49:16.048Z,12.36
2022-09-21T07:51:46.892Z,12.36
2022-09-21T07:54:17.075Z,12.38
2022-09-21T07:57:07.399Z,12.42
2022-09-21T07:59:38.008Z,12.48
2022-09-21T08:02:09.039Z,12.52
2022-09-21T08:04:39.904Z,12.60
2022-09-21T08:07:10.182Z,12.67
2022-09-21T08:09:41.281Z,12.71
2022-09-21T08:12:12.639Z,12.75
2022-09-21T08:14:43.866Z,12.82
2022-09-21T08:17:13.951Z,12.84
2022-09-21T08:19:44.715Z,12.85
2022-09-21T08:22:15.502Z,12.86
2022-09-21T08:24:46.514Z,12.86
2022-09-21T08:27:20.198Z,12.87
2022-09-21T08:29:50.722Z,12.89
2022-09-21T08:32:46.530Z,12.96
2022-09-21T08:35:11.833Z,13.16
2022-09-21T08:37:42.164Z,13.29
2022-09-21T08:44:52.475Z,13.42
2022-09-21T08:47:41.501Z,13.40
2022-09-21T08:50:39.321Z,13.39
2022-09-21T08:53:37.221Z,13.42
2022-09-21T08:56:07.921Z,13.42
2022-09-21T08:58:41.882Z,13.43
2022-09-21T09:01:34.707Z,13.42
2022-09-21T09:04:51.215Z,13.41
2022-09-21T09:07:33.820Z,13.43
2022-09-21T09:10:16.470Z,13.46
2022-09-21T09:13:24.909Z,13.55
2022-09-21T09:16:07.076Z,13.67
2022-09-21T09:19:24.180Z,13.83
2022-09-21T09:23:04.063Z,13.99
2022-09-21T09:25:44.723Z,13.87
2022-09-21T09:28:53.009Z,13.75
2022-09-21T09:31:39.712Z,13.61
2022-09-21T09:34:14.938Z,13.58
2022-09-21T09:36:59.990Z,13.63
2022-09-21T09:39:32.481Z,13.71
2022-09-21T09:42:40.409Z,13.79
2022-09-21T09:45:45.547Z,13.85
2022-09-21T09:48:18.849Z,13.89
2022-09-21T09:50:49.812Z,13.90
2022-09-21T09:53:30.755Z,13.89
2022-09-21T09:56:02.831Z,14.00
2022-09-21T09:58:54.389Z,14.11
2022-09-21T10:01:44.841Z,14.27
2022-09-21T10:04:18.454Z,14.39
2022-09-21T10:06:49.163Z,14.47
2022-09-21T10:09:25.951Z,14.44
2022-09-21T10:12:19.019Z,14.47
2022-09-21T10:14:55.073Z,14.40
2022-09-21T10:17:27.101Z,14.41
2022-09-21T10:20:05.643Z,14.51
2022-09-21T10:22:36.641Z,14.61
2022-09-21T10:25:08.948Z,14.54
2022-09-21T10:27:44.587Z,14.39
2022-09-21T10:30:47.136Z,14.22
2022-09-21T10:33:24.051Z,14.02
2022-09-21T10:35:55.013Z,13.91
2022-09-21T10:38:30.108Z,13.89
2022-09-21T10:41:00.379Z,13.89
2022-09-21T10:43:44.954Z,13.89
2022-09-21T10:46:16.184Z,13.90
2022-09-21T10:48:49.424Z,13.94
2022-09-21T10:51:30.831Z,13.99
2022-09-21T10:54:00.932Z,14.02
2022-09-21T10:56:31.042Z,14.01
2022-09-21T10:59:23.789Z,14.03
2022-09-21T11:01:57.451Z,13.95
2022-09-21T11:04:44.725Z,13.87
2022-09-21T11:07:32.739Z,13.83
2022-09-21T11:10:26.895Z,13.81
2022-09-21T11:13:11.713Z,13.82
2022-09-21T11:16:06.763Z,13.84
2022-09-21T11:18:51.699Z,13.90
2022-09-21T11:21:38.187Z,14.03
2022-09-21T11:24:43.278Z,14.14
2022-09-21T11:27:38.629Z,14.21
2022-09-21T11:30:15.548Z,14.31
2022-09-21T11:33:19.233Z,14.38
2022-09-21T11:36:25.720Z,14.47
2022-09-21T11:39:01.048Z,14.53
2022-09-21T11:41:59.419Z,14.59
2022-09-21T11:45:02.387Z,14.68
2022-09-21T11:47:56.424Z,14.70
2022-09-21T11:50:34.995Z,14.74
2022-09-21T11:53:12.800Z,14.79
2022-09-21T11:56:18.754Z,14.84
2022-09-21T11:59:29.622Z,14.95
2022-09-21T12:02:26.075Z,14.97
2022-09-21T12:05:20.098Z,14.94
2022-09-21T12:08:15.217Z,14.90
2022-09-21T12:10:51.443Z,14.81
2022-09-21T12:13:30.602Z,14.76
2022-09-21T12:16:24.126Z,14.77
2022-09-21T12:19:04.824Z,14.85
2022-09-21T12:21:47.748Z,14.91
2022-09-21T12:24:32.046Z,14.92
2022-09-21T12:27:36.615Z,14.89
2022-09-21T12:30:17.468Z,14.88
2022-09-21T12:32:53.605Z,14.85
2022-09-21T12:35:37.023Z,14.86
2022-09-21T12:41:25.578Z,15.02
2022-09-21T12:44:00.878Z,15.05
2022-09-21T12:46:37.641Z,15.05
2022-09-21T12:49:16.354Z,14.99
2022-09-21T12:51:55.191Z,14.91
2022-09-21T12:54:50.409Z,14.84
2022-09-21T12:58:19.431Z,14.78
2022-09-21T13:01:15.217Z,14.73
2022-09-21T13:04:29.791Z,14.71
2022-09-21T13:07:02.664Z,14.72
2022-09-21T13:09:39.627Z,14.75
2022-09-21T13:12:35.049Z,14.78
2022-09-21T13:15:22.327Z,14.87
2022-09-21T13:18:08.524Z,14.95
2022-09-21T13:20:44.042Z,15.02
2022-09-21T13:23:20.063Z,15.06
2022-09-21T13:26:03.525Z,15.05
2022-09-21T13:28:51.710Z,14.98
2022-09-21T13:31:54.752Z,14.71
2022-09-21T13:35:29.388Z,14.43
2022-09-21T13:38:34.650Z,14.27
2022-09-21T13:41:10.020Z,14.19
2022-09-21T13:43:51.501Z,14.15
2022-09-21T13:46:36.718Z,14.13
2022-09-21T13:49:07.053Z,14.11
2022-09-21T13:51:51.409Z,14.05
2022-09-21T13:54:25.763Z,14.00
2022-09-21T13:57:37.201Z,13.90
2022-09-21T14:00:14.315Z,13.87
2022-09-21T14:02:58.651Z,13.86
2022-09-21T14:05:55.739Z,13.92
2022-09-21T14:08:34.838Z,14.00
2022-09-21T14:11:10.123Z,14.04
2022-09-21T14:13:44.388Z,14.05
2022-09-21T14:16:34.730Z,14.07
2022-09-21T14:19:27.249Z,14.10
2022-09-21T14:22:06.629Z,14.09
2022-09-21T14:24:44.449Z,14.03
2022-09-21T14:27:45.313Z,14.00
2022-09-21T14:30:25.251Z,13.93
2022-09-21T14:33:14.608Z,13.86
2022-09-21T14:35:47.786Z,13.82
2022-09-21T14:38:26.420Z,13.82
2022-09-21T14:41:03.387Z,13.82
2022-09-21T14:43:35.795Z,13.80
2022-09-21T14:46:20.361Z,13.81
2022-09-21T14:49:19.120Z,13.84
2022-09-21T14:52:12.315Z,13.86
2022-09-21T14:55:17.527Z,13.86
2022-09-21T14:58:01.250Z,13.86
2022-09-21T15:00:50.646Z,13.86
2022-09-21T15:03:32.234Z,13.86
2022-09-21T15:10:55.326Z,13.70
2022-09-21T15:13:45.254Z,13.49
2022-09-21T15:16:40.453Z,13.33
2022-09-21T15:19:37.793Z,13.24
2022-09-21T15:22:21.783Z,13.21
2022-09-21T15:25:00.554Z,13.21
2022-09-21T15:27:33.800Z,13.21
2022-09-21T15:30:08.641Z,13.18
2022-09-21T15:32:38.752Z,13.17
2022-09-21T15:35:27.845Z,13.17
2022-09-21T15:38:02.626Z,13.16
2022-09-21T15:40:37.866Z,13.15
2022-09-21T15:43:21.013Z,13.14
2022-09-21T15:45:56.140Z,13.11
2022-09-21T15:48:34.241Z,13.10
2022-09-21T15:51:14.886Z,13.11
2022-09-21T15:53:56.270Z,13.14
2022-09-21T15:56:30.661Z,13.19
2022-09-21T15:59:08.273Z,13.22
2022-09-21T16:01:47.913Z,13.28
2022-09-21T16:04:23.353Z,13.32
2022-09-21T16:07:26.550Z,13.35
2022-09-21T16:09:56.951Z,13.36
2022-09-21T16:12:36.409Z,13.35
2022-09-21T16:15:19.911Z,13.43
2022-09-21T16:18:05.558Z,13.48
2022-09-21T16:20:49.031Z,13.52
2022-09-21T16:23:23.640Z,13.55
2022-09-21T16:26:00.983Z,13.56
2022-09-21T16:28:42.763Z,13.56
2022-09-21T16:31:37.714Z,13.54
2022-09-21T16:34:19.258Z,13.53
2022-09-21T16:36:51.983Z,13.54
2022-09-21T16:39:24.141Z,13.54
2022-09-21T16:42:00.336Z,13.53
2022-09-21T16:44:51.300Z,13.52
2022-09-21T16:47:28.614Z,13.51
2022-09-21T16:51:04.121Z,13.50
2022-09-21T16:53:36.653Z,13.46
2022-09-21T16:56:07.663Z,13.42
2022-09-21T16:58:38.356Z,13.40
2022-09-21T17:01:22.208Z,13.39
2022-09-21T17:03:53.272Z,13.39
2022-09-21T17:06:24.217Z,13.38
2022-09-21T17:08:55.638Z,13.37
2022-09-21T17:11:26.359Z,13.38
2022-09-21T17:14:01.753Z,13.38
2022-09-21T17:16:32.497Z,13.38
2022-09-21T17:19:03.927Z,13.38
2022-09-21T17:21:34.219Z,13.39
2022-09-21T17:24:04.223Z,13.40
2022-09-21T17:26:35.041Z,13.39
2022-09-21T17:29:22.753Z,13.40
2022-09-21T17:31:56.810Z,13.42
2022-09-21T17:34:35.412Z,13.43
2022-09-21T17:37:07.814Z,13.42
2022-09-21T17:39:38.931Z,13.40
2022-09-21T17:42:15.428Z,13.39
2022-09-21T17:45:13.309Z,13.41
2022-09-21T17:47:46.949Z,13.42
2022-09-21T17:50:29.597Z,13.42
2022-09-21T17:53:17.695Z,13.42
2022-09-21T17:55:54.757Z,13.43
2022-09-21T17:58:49.529Z,13.43
2022-09-21T18:01:33.629Z,13.42
2022-09-21T18:04:05.723Z,13.37
2022-09-21T18:06:37.130Z,13.39
2022-09-21T18:09:08.184Z,13.40
2022-09-21T18:12:24.896Z,13.41
2022-09-21T18:15:09.061Z,13.44
2022-09-21T18:18:05.097Z,13.43
2022-09-21T18:21:02.469Z,13.43
2022-09-21T18:24:31.028Z,13.41
2022-09-21T18:27:30.734Z,13.37
2022-09-21T18:30:06.079Z,13.35
2022-09-21T18:33:19.483Z,13.35
2022-09-21T18:36:26.386Z,13.33
2022-09-21T18:39:16.591Z,13.33
2022-09-21T18:41:56.264Z,13.33
2022-09-21T18:44:36.326Z,13.34
2022-09-21T18:47:29.841Z,13.32
2022-09-21T18:50:10.680Z,13.30
2022-09-21T18:52:52.310Z,13.27
2022-09-21T18:55:33.226Z,13.24
2022-09-21T18:58:03.993Z,13.22
2022-09-21T19:00:36.282Z,13.23
2022-09-21T19:03:18.162Z,13.24
2022-09-21T19:06:05.402Z,13.23
2022-09-21T19:09:12.794Z,13.22
2022-09-21T19:12:05.546Z,13.22
2022-09-21T19:14:59.547Z,13.20
2022-09-21T19:17:38.274Z,13.16
2022-09-21T19:20:50.271Z,13.11
2022-09-21T19:23:44.914Z,13.00
2022-09-21T19:26:30.264Z,12.95
2022-09-21T19:29:31.362Z,12.90
2022-09-21T19:32:04.100Z,12.90
2022-09-21T19:34:34.472Z,12.90
2022-09-21T19:37:07.922Z,12.90
2022-09-21T19:39:39.716Z,12.90
2022-09-21T19:42:35.295Z,12.88
2022-09-21T19:45:29.988Z,12.88
2022-09-21T19:48:07.068Z,12.86
2022-09-21T19:50:55.011Z,12.81
2022-09-21T19:53:43.681Z,12.71
2022-09-21T19:56:34.588Z,12.61
2022-09-21T19:59:22.304Z,12.55
2022-09-21T20:01:58.243Z,12.52
2022-09-21T20:04:34.432Z,12.52
2022-09-21T20:07:43.066Z,12.49
2022-09-21T20:10:25.501Z,12.47
2022-09-21T20:13:31.849Z,12.43
2022-09-21T20:16:33.490Z,12.39
2022-09-21T20:19:06.584Z,12.35
2022-09-21T20:21:42.893Z,12.30
2022-09-21T20:24:25.149Z,12.26
2022-09-21T20:26:55.653Z,12.22
2022-09-21T20:29:26.282Z,12.17
2022-09-21T20:31:57.264Z,12.10
2022-09-21T20:34:28.280Z,12.10
2022-09-21T20:36:58.870Z,12.11
2022-09-21T20:39:29.024Z,12.13
2022-09-21T20:42:00.116Z,12.13
2022-09-21T20:44:30.254Z,12.13
2022-09-21T20:47:00.087Z,12.13
2022-09-21T20:49:32.093Z,12.11
2022-09-21T20:52:02.449Z,12.09
2022-09-21T20:54:32.983Z,12.07
2022-09-21T20:57:03.313Z,12.04
2022-09-21T20:59:41.411Z,12.01
2022-09-21T21:02:13.734Z,12.00
2022-09-21T21:04:44.025Z,12.02
2022-09-21T21:07:14.246Z,12.04
2022-09-21T21:09:44.471Z,12.03
2022-09-21T21:12:16.367Z,12.03
2022-09-21T21:14:46.577Z,12.03
2022-09-21T21:17:17.080Z,12.03
2022-09-21T21:19:47.495Z,12.02
2022-09-21T21:22:17.760Z,12.00
2022-09-21T21:24:48.420Z,11.97
2022-09-21T21:27:24.163Z,11.94
2022-09-21T21:29:56.257Z,11.91
2022-09-21T21:32:28.220Z,11.89
2022-09-21T21:34:58.514Z,11.83
2022-09-21T21:37:29.616Z,11.76
2022-09-21T21:39:59.830Z,11.73
2022-09-21T21:42:33.686Z,11.71
2022-09-21T21:45:03.958Z,11.69
2022-09-21T21:47:41.599Z,11.69
2022-09-21T21:50:13.073Z,11.72
2022-09-21T21:52:45.447Z,11.73
2022-09-21T21:55:15.973Z,11.71
2022-09-21T21:57:46.275Z,11.66
2022-09-21T22:00:16.746Z,11.60
2022-09-21T22:02:47.245Z,11.53
2022-09-21T22:05:17.540Z,11.50
2022-09-21T22:07:47.740Z,11.47
2022-09-21T22:10:18.181Z,11.46
2022-09-21T22:12:48.806Z,11.46
2022-09-21T22:15:20.569Z,11.47
2022-09-21T22:17:51.220Z,11.48
2022-09-21T22:20:23.254Z,11.46
2022-09-21T22:22:53.253Z,11.39
2022-09-21T22:25:23.471Z,11.34
2022-09-21T22:27:53.594Z,11.30
2022-09-21T22:30:24.129Z,11.28
2022-09-21T22:32:54.792Z,11.28
2022-09-21T22:35:25.304Z,11.27
2022-09-21T22:37:56.521Z,11.27
2022-09-21T22:40:28.891Z,11.30
2022-09-21T22:42:59.422Z,11.32
2022-09-21T22:45:29.793Z,11.33
2022-09-21T22:48:00.134Z,11.35
2022-09-21T22:50:30.569Z,11.35
2022-09-21T22:53:00.656Z,11.29
2022-09-21T22:55:33.994Z,11.22
2022-09-21T22:58:04.299Z,11.17
2022-09-21T23:00:34.449Z,11.13
2022-09-21T23:03:04.751Z,11.05
2022-09-21T23:05:35.278Z,10.98
2022-09-21T23:08:06.501Z,10.93
2022-09-21T23:10:36.813Z,10.91
2022-09-21T23:13:09.429Z,10.90
2022-09-21T23:15:39.591Z,10.89
2022-09-21T23:18:10.042Z,10.90
2022-09-21T23:20:40.271Z,10.93
2022-09-21T23:23:10.639Z,10.93
2022-09-21T23:25:41.037Z,10.96
2022-09-21T23:28:11.242Z,10.97
2022-09-21T23:30:41.312Z,10.96
2022-09-21T23:33:11.776Z,10.95
2022-09-21T23:35:43.688Z,10.93
2022-09-21T23:38:14.032Z,10.91
2022-09-21T23:40:44.428Z,10.90
2022-09-21T23:43:14.717Z,10.90
2022-09-21T23:45:45.151Z,10.90
2022-09-21T23:48:15.481Z,10.89
2022-09-21T23:50:45.968Z,10.88
2022-09-21T23:57:44.741Z,10.85
